My webcam more information My webcam


Thunder radar more information blitzortung!


Rain radar more information rain snow radar


Visit our other weather sites:

Template documentation
and downloads

And another site



Nearby METAR Reports

   
KAVP - Albrightsville, PA
Updated: Sep 22 2018 9:54 pm
Clear  
Clear  
   Wind: ESE 4.6 mph
Wind: ESE 4.6 mph
Temperature: 53.6°F
Dew Point: 50°F
Humidity: 88%
Barometer: 30.24 inHg
Clouds: Clear
Visibility: 10 mi
Cloud details: Clear
KAVP 230154Z 11004KT 10SM CLR 12/10 A3024 RMK AO2 SLP237 T01220100 $
KIWA - Apache Junction, AZ
Updated: Sep 22 2018 9:47 pm
Few Clouds  
Few Clouds  
   Wind: SE 9.2 mph
Wind: SE 9.2 mph
Temperature: 93.2°F
Dew Point: 42.8°F
Humidity: 17%
Barometer: 29.84 inHg
Clouds: Few Clouds
Visibility: 20 mi
Cloud details: Few Clouds 2438 m
KIWA 230147Z 14008KT 20SM FEW080 34/06 A2984
KPKB - Blue Rock, OH
Updated: Sep 22 2018 9:53 pm
Light Rain, Mostly Cloudy  
Light Rain, Mostly Cloudy  
   Wind: NNE 6.9 mph
Wind: NNE 6.9 mph
Temperature: 60.8°F
Dew Point: 53.6°F
Humidity: 77%
Barometer: 30.23 inHg
Clouds: Mostly Cloudy
Visibility: 10 mi
Cloud details: Few Clouds 2743 m,
Mostly Cloudy 3658 m
KPKB 230153Z 02006KT 10SM -RA FEW090 BKN120 16/12 A3023 RMK AO2 RAB35 SLP233 P0000 T01560122
KHVN - Branford, CT
Updated: Sep 22 2018 9:53 pm
Clear  
Clear  
   Wind: North 9.2 mph
Wind: North 9.2 mph
Temperature: 64.4°F
Dew Point: 51.8°F
Humidity: 64%
Barometer: 30.21 inHg
Clouds: Clear
Visibility: 10 mi
Cloud details: Clear
KHVN 230153Z 35008KT 10SM CLR 18/11 A3021 RMK AO2 SLP228 T01780111
KPHX - Carefree, AZ
Updated: Sep 22 2018 9:51 pm
Few Clouds  
Few Clouds  
   Wind: South 6.9 mph
Wind: South 6.9 mph
Temperature: 98.6°F
Dew Point: 44.6°F
Humidity: 16%
Barometer: 29.79 inHg
Clouds: Few Clouds
Visibility: 10 mi
Cloud details: Few Clouds 3962 m,
Few Clouds 7620 m
KPHX 230151Z 17006KT 10SM FEW130 FEW250 37/07 A2979 RMK AO2 SLP067 T03670067
 

Script developed by  Saratoga-weather.org Adapted for the template by  Weerstation Leuven

You find our weather info also at:

WeatherCloud

Weather Underground

Citizen Weather Observer Program (CWOP)

HAMweather, WeatherForYou, PWS Weather

Anything Weather